Time;durP1;ratioP1;P1;durP2;ratioP2;P2;SDS_P1;SDS_P2;PMS_P1;PMS_P2;Temp;Humidity;BMP_temperature;BMP_pressure;BME280_temperature;BME280_humidity;BME280_pressure;Samples;Min_cycle;Max_cycle;Signal;HPM_P1;HPM_P2
2023/09/02 00:01:21;;;;;;;13.95;12.68;;;14.30;99.90;;;;;;5128257;27;20436;-63
2023/09/02 00:03:47;;;;;;;13.25;11.95;;;14.30;99.90;;;;;;5119404;27;20047;-64
2023/09/02 00:06:13;;;;;;;15.23;12.23;;;14.30;99.90;;;;;;5114835;27;20035;-63
2023/09/02 00:08:38;;;;;;;15.68;12.70;;;14.30;99.90;;;;;;5119512;27;20041;-63
2023/09/02 00:11:04;;;;;;;13.73;12.25;;;14.30;99.90;;;;;;5130543;27;20114;-64
2023/09/02 00:13:29;;;;;;;14.85;13.45;;;14.30;99.90;;;;;;5110956;28;20047;-63
2023/09/02 00:15:55;;;;;;;17.55;15.70;;;14.30;99.90;;;;;;5129531;27;20051;-63
2023/09/02 00:18:21;;;;;;;17.95;15.02;;;14.30;99.90;;;;;;5125472;27;20039;-62
2023/09/02 00:20:46;;;;;;;17.33;15.35;;;14.40;99.90;;;;;;5118947;27;20401;-63
2023/09/02 00:23:12;;;;;;;16.77;14.98;;;14.40;99.90;;;;;;5120416;27;20042;-63
2023/09/02 00:25:38;;;;;;;18.05;16.15;;;14.40;99.90;;;;;;5111856;28;20069;-64
2023/09/02 00:28:03;;;;;;;19.23;16.00;;;14.40;99.90;;;;;;5110799;27;20118;-63
2023/09/02 00:30:29;;;;;;;19.75;16.10;;;14.40;99.90;;;;;;5116541;27;20063;-63
2023/09/02 00:32:55;;;;;;;17.13;15.38;;;14.40;99.90;;;;;;5127331;27;20137;-63
2023/09/02 00:35:20;;;;;;;20.80;15.90;;;14.40;99.90;;;;;;5117101;27;20132;-63
2023/09/02 00:37:46;;;;;;;17.60;15.80;;;14.40;99.90;;;;;;5119150;27;20383;-62
2023/09/02 00:40:15;;;;;;;17.83;16.02;;;14.40;99.90;;;;;;5130015;27;20080;-63
2023/09/02 00:42:42;;;;;;;17.50;15.70;;;14.40;99.90;;;;;;5123526;27;20036;-63
2023/09/02 00:45:08;;;;;;;17.92;15.75;;;14.40;99.90;;;;;;5118690;27;20447;-63
2023/09/02 00:47:34;;;;;;;18.40;16.58;;;14.40;99.90;;;;;;5116508;27;20027;-63
2023/09/02 00:50:00;;;;;;;17.58;15.88;;;14.50;99.90;;;;;;5127488;27;20043;-63
2023/09/02 00:52:26;;;;;;;17.88;15.10;;;14.40;99.90;;;;;;5109598;27;20047;-63
2023/09/02 00:54:52;;;;;;;19.98;16.98;;;14.40;99.90;;;;;;5122195;27;20505;-63
2023/09/02 00:57:17;;;;;;;20.83;17.45;;;14.40;99.90;;;;;;5109675;28;20043;-63
2023/09/02 00:59:43;;;;;;;18.92;16.92;;;14.50;99.90;;;;;;5109969;28;20487;-63
2023/09/02 01:02:09;;;;;;;20.00;16.52;;;14.50;99.90;;;;;;5126532;27;20123;-63
2023/09/02 01:04:36;;;;;;;19.40;16.60;;;14.50;99.90;;;;;;5121473;27;20034;-63
2023/09/02 01:07:03;;;;;;;21.05;18.00;;;14.60;99.90;;;;;;5113388;27;20055;-62
2023/09/02 01:09:31;;;;;;;20.00;17.52;;;14.60;99.90;;;;;;5114324;28;20043;-63
2023/09/02 01:11:56;;;;;;;21.38;19.02;;;14.60;99.90;;;;;;5121176;27;20052;-63
2023/09/02 01:14:22;;;;;;;20.00;17.88;;;14.60;99.90;;;;;;5109726;28;20050;-63
2023/09/02 01:16:48;;;;;;;21.38;18.73;;;14.60;99.90;;;;;;5124275;28;20087;-63
2023/09/02 01:19:17;;;;;;;22.60;18.90;;;14.60;99.90;;;;;;5119101;27;20039;-63
2023/09/02 01:22:02;;;;;;;23.13;19.05;;;14.60;99.90;;;;;;5122645;27;20043;-63
2023/09/02 01:24:49;;;;;;;21.27;18.40;;;14.60;99.90;;;;;;5111612;28;20046;-63
2023/09/02 01:27:27;;;;;;;22.08;18.55;;;14.60;99.90;;;;;;5127435;28;20124;-63
2023/09/02 01:29:58;;;;;;;22.48;20.08;;;14.70;99.90;;;;;;5130121;28;20061;-63
2023/09/02 01:32:32;;;;;;;20.97;18.40;;;14.70;99.90;;;;;;5129615;28;20039;-63
2023/09/02 01:34:59;;;;;;;22.90;19.85;;;14.70;99.90;;;;;;5131603;28;20118;-63
2023/09/02 01:37:26;;;;;;;24.33;20.27;;;14.70;99.90;;;;;;5111128;28;20078;-63
2023/09/02 01:39:54;;;;;;;21.80;19.52;;;14.70;99.90;;;;;;5123547;28;20493;-63
2023/09/02 01:42:20;;;;;;;24.60;20.20;;;14.70;99.90;;;;;;5110784;28;20494;-63
2023/09/02 01:44:47;;;;;;;24.42;20.75;;;14.70;99.90;;;;;;5121799;28;20047;-63
2023/09/02 01:47:15;;;;;;;24.42;20.50;;;14.70;99.90;;;;;;5122257;28;20060;-63
2023/09/02 01:49:41;;;;;;;22.77;19.73;;;14.70;99.90;;;;;;5092303;28;20052;-63
2023/09/02 01:52:07;;;;;;;21.60;19.30;;;14.70;99.90;;;;;;5101039;28;20058;-63
2023/09/02 01:54:33;;;;;;;25.17;20.20;;;14.80;99.90;;;;;;5117569;28;20039;-63
2023/09/02 01:56:58;;;;;;;23.38;20.30;;;14.70;99.90;;;;;;5092493;28;20081;-63
2023/09/02 01:59:24;;;;;;;22.05;19.65;;;14.70;99.90;;;;;;5110996;28;20067;-63
2023/09/02 02:01:50;;;;;;;25.90;20.75;;;14.80;99.90;;;;;;5129902;28;20035;-63
2023/09/02 02:04:28;;;;;;;22.55;20.10;;;14.70;99.90;;;;;;5117298;28;20114;-63
2023/09/02 02:07:02;;;;;;;20.80;18.58;;;14.80;99.90;;;;;;5109480;28;20072;-63
2023/09/02 02:09:38;;;;;;;22.05;19.65;;;14.80;99.90;;;;;;5109040;28;20802;-63
2023/09/02 02:12:05;;;;;;;23.80;19.48;;;14.80;99.90;;;;;;5119442;28;20111;-63
2023/09/02 02:14:35;;;;;;;22.00;19.40;;;14.70;99.90;;;;;;5119611;28;20040;-63
2023/09/02 02:17:03;;;;;;;22.77;20.40;;;14.70;99.90;;;;;;5124540;28;20035;-63
2023/09/02 02:19:29;;;;;;;23.65;21.15;;;14.70;99.90;;;;;;5123094;28;20476;-63
2023/09/02 02:21:55;;;;;;;22.38;20.05;;;14.70;99.90;;;;;;5121743;28;20084;-63
2023/09/02 02:24:21;;;;;;;22.38;19.60;;;14.70;99.90;;;;;;5112046;28;20036;-63
2023/09/02 02:26:46;;;;;;;27.35;21.42;;;14.70;99.90;;;;;;5114704;28;20068;-63
2023/09/02 02:29:12;;;;;;;22.08;19.67;;;14.80;99.90;;;;;;5102370;28;20050;-63
2023/09/02 02:31:38;;;;;;;22.70;20.17;;;14.80;99.90;;;;;;5118810;28;20040;-63
2023/09/02 02:34:03;;;;;;;25.10;21.27;;;14.80;99.90;;;;;;5126740;27;20066;-63
2023/09/02 02:36:29;;;;;;;27.73;22.38;;;14.80;99.90;;;;;;5120659;27;20035;-63
2023/09/02 02:38:55;;;;;;;24.30;20.63;;;14.80;99.90;;;;;;5115321;27;20031;-63
2023/09/02 02:41:20;;;;;;;22.85;20.15;;;14.70;99.90;;;;;;5107326;27;20371;-63
2023/09/02 02:43:46;;;;;;;23.27;20.60;;;14.80;99.90;;;;;;5133167;27;20047;-63
2023/09/02 02:46:11;;;;;;;25.35;20.77;;;14.80;99.90;;;;;;5127436;27;20027;-63
2023/09/02 02:48:37;;;;;;;23.08;20.20;;;14.80;99.90;;;;;;5112403;28;20088;-63
2023/09/02 02:51:03;;;;;;;23.30;20.60;;;14.80;99.90;;;;;;5128963;27;20046;-63
2023/09/02 02:53:29;;;;;;;22.23;19.55;;;14.80;99.90;;;;;;5123800;27;20046;-64
2023/09/02 02:55:54;;;;;;;23.75;21.27;;;14.80;99.90;;;;;;5132287;27;20393;-63
2023/09/02 02:58:21;;;;;;;24.90;20.88;;;14.80;99.90;;;;;;5116416;27;20032;-63
2023/09/02 03:00:49;;;;;;;22.98;20.50;;;14.80;99.90;;;;;;5130588;27;20036;-63
2023/09/02 03:03:15;;;;;;;24.30;21.25;;;14.80;99.90;;;;;;5134081;27;20043;-63
2023/09/02 03:05:42;;;;;;;24.65;22.00;;;14.80;99.90;;;;;;5124095;27;20039;-63
2023/09/02 03:08:09;;;;;;;25.15;22.17;;;14.80;99.90;;;;;;5105428;27;20046;-63
2023/09/02 03:10:35;;;;;;;25.13;21.13;;;14.80;99.90;;;;;;5126400;27;20544;-63
2023/09/02 03:13:02;;;;;;;24.05;21.48;;;14.80;99.90;;;;;;5134929;27;20099;-63
2023/09/02 03:15:28;;;;;;;26.05;22.30;;;14.80;99.90;;;;;;5115688;27;20046;-63
2023/09/02 03:17:54;;;;;;;26.35;21.30;;;14.80;99.90;;;;;;5114923;27;20039;-63
2023/09/02 03:20:20;;;;;;;26.83;22.60;;;14.80;99.90;;;;;;5116411;27;20110;-63
2023/09/02 03:22:46;;;;;;;25.95;22.27;;;14.80;99.90;;;;;;5119326;27;20545;-63
2023/09/02 03:25:12;;;;;;;25.95;21.33;;;14.80;99.90;;;;;;5120961;27;20167;-63
2023/09/02 03:27:41;;;;;;;24.25;21.15;;;14.80;99.90;;;;;;5135838;27;20384;-63
2023/09/02 03:30:07;;;;;;;24.88;21.42;;;14.80;99.90;;;;;;5122195;27;20394;-62
2023/09/02 03:32:34;;;;;;;22.85;20.52;;;14.80;99.90;;;;;;5133834;27;20042;-63
2023/09/02 03:35:00;;;;;;;26.55;21.00;;;14.80;99.90;;;;;;5116596;27;20031;-63
2023/09/02 03:37:26;;;;;;;23.63;21.00;;;14.80;99.90;;;;;;5119897;27;20046;-63
2023/09/02 03:39:55;;;;;;;23.40;19.23;;;14.80;99.90;;;;;;5133797;27;20054;-63
2023/09/02 03:42:21;;;;;;;25.60;20.70;;;14.80;99.90;;;;;;5133424;27;20035;-62
2023/09/02 03:44:48;;;;;;;24.42;21.45;;;14.80;99.90;;;;;;5121200;27;20035;-63
2023/09/02 03:47:14;;;;;;;24.27;21.50;;;14.70;99.90;;;;;;5112695;27;20497;-63
2023/09/02 03:49:40;;;;;;;25.52;21.42;;;14.70;99.90;;;;;;5140220;27;20489;-63
2023/09/02 03:52:05;;;;;;;25.45;21.65;;;14.70;99.90;;;;;;5114691;27;20035;-62
2023/09/02 03:54:31;;;;;;;25.60;22.35;;;14.70;99.90;;;;;;5121720;27;20039;-63
2023/09/02 03:56:57;;;;;;;24.50;21.55;;;14.70;99.90;;;;;;5136535;27;20078;-63
2023/09/02 03:59:22;;;;;;;22.92;20.60;;;14.70;99.90;;;;;;5119295;27;20065;-63
2023/09/02 04:01:48;;;;;;;24.98;21.05;;;14.70;99.90;;;;;;5134925;27;20046;-63
2023/09/02 04:04:13;;;;;;;25.58;21.52;;;14.70;99.90;;;;;;5149880;27;20461;-63
2023/09/02 04:06:39;;;;;;;25.13;21.67;;;14.70;99.90;;;;;;5139586;27;20507;-63
2023/09/02 04:09:07;;;;;;;25.02;21.10;;;14.70;99.90;;;;;;5115148;27;20138;-62
2023/09/02 04:11:33;;;;;;;24.90;22.20;;;14.70;99.90;;;;;;5114186;27;20041;-63
2023/09/02 04:13:59;;;;;;;23.73;21.23;;;14.70;99.90;;;;;;5127998;27;20063;-63
2023/09/02 04:16:24;;;;;;;24.17;21.58;;;14.70;99.90;;;;;;5131350;27;20043;-62
2023/09/02 04:18:51;;;;;;;27.92;22.40;;;14.70;99.90;;;;;;5121418;27;20080;-63
2023/09/02 04:21:17;;;;;;;26.27;22.42;;;14.70;99.90;;;;;;5115291;27;20426;-63
2023/09/02 04:23:43;;;;;;;28.33;22.80;;;14.70;99.90;;;;;;5110820;28;20032;-63
2023/09/02 04:26:09;;;;;;;28.08;23.15;;;14.70;99.90;;;;;;5110443;28;20164;-63
2023/09/02 04:28:35;;;;;;;27.00;23.10;;;14.70;99.90;;;;;;5116538;27;20118;-63
2023/09/02 04:31:00;;;;;;;27.67;22.88;;;14.70;99.90;;;;;;5119863;27;20617;-63
2023/09/02 04:33:26;;;;;;;25.17;22.30;;;14.70;99.90;;;;;;5127030;27;20043;-63
2023/09/02 04:35:52;;;;;;;26.60;22.67;;;14.70;99.90;;;;;;5119078;27;20051;-63
2023/09/02 04:38:18;;;;;;;26.75;23.40;;;14.70;99.90;;;;;;5130558;27;20038;-63
2023/09/02 04:40:45;;;;;;;24.52;21.88;;;14.70;99.90;;;;;;5130465;27;20057;-63
2023/09/02 04:43:12;;;;;;;27.33;23.08;;;14.70;99.90;;;;;;5130526;27;20039;-63
2023/09/02 04:45:40;;;;;;;27.30;24.30;;;14.70;99.90;;;;;;5130675;27;20043;-63
2023/09/02 04:48:06;;;;;;;30.25;23.90;;;14.70;99.90;;;;;;5130258;27;20047;-63
2023/09/02 04:50:34;;;;;;;31.90;22.55;;;14.70;99.90;;;;;;5127822;27;20043;-64
2023/09/02 04:53:01;;;;;;;29.70;23.58;;;14.70;99.90;;;;;;5130574;27;20510;-63
2023/09/02 04:55:27;;;;;;;26.27;23.42;;;14.70;99.90;;;;;;5126725;27;20039;-63
2023/09/02 04:57:54;;;;;;;25.58;22.52;;;14.70;99.90;;;;;;5109971;28;20046;-63
2023/09/02 05:00:22;;;;;;;28.15;23.88;;;14.70;99.90;;;;;;5111185;27;20039;-63
2023/09/02 05:02:48;;;;;;;28.38;24.58;;;14.70;99.90;;;;;;5109883;28;20049;-63
2023/09/02 05:05:16;;;;;;;29.45;24.65;;;14.70;99.90;;;;;;5103348;27;20043;-63
2023/09/02 05:07:41;;;;;;;29.35;24.25;;;14.80;99.90;;;;;;5130565;27;20114;-63
2023/09/02 05:10:07;;;;;;;29.33;24.10;;;14.80;99.90;;;;;;5130218;27;20043;-63
2023/09/02 05:12:33;;;;;;;30.55;23.95;;;14.80;99.90;;;;;;5116059;27;20105;-63
2023/09/02 05:15:00;;;;;;;31.55;25.13;;;14.80;99.90;;;;;;5121803;27;20063;-63
2023/09/02 05:17:26;;;;;;;30.10;24.63;;;14.80;99.90;;;;;;5131171;27;20035;-63
2023/09/02 05:19:52;;;;;;;29.48;23.48;;;14.80;99.90;;;;;;5123104;27;20051;-63
2023/09/02 05:22:17;;;;;;;28.88;24.02;;;14.80;99.90;;;;;;5101023;28;20385;-63
2023/09/02 05:24:43;;;;;;;28.13;23.70;;;14.80;99.90;;;;;;5129944;28;20043;-63
2023/09/02 05:27:09;;;;;;;29.33;24.35;;;14.80;99.90;;;;;;5113243;28;20051;-63
2023/09/02 05:29:35;;;;;;;27.27;23.17;;;14.80;99.90;;;;;;5100035;28;20055;-63
2023/09/02 05:32:01;;;;;;;27.92;24.42;;;14.80;99.90;;;;;;5112178;28;20032;-63
2023/09/02 05:34:26;;;;;;;27.58;23.90;;;14.80;99.90;;;;;;5109402;28;20123;-63
2023/09/02 05:36:52;;;;;;;28.15;24.35;;;14.80;99.90;;;;;;5125952;28;20171;-63
2023/09/02 05:39:17;;;;;;;31.52;24.75;;;14.80;99.90;;;;;;5119846;28;20032;-63
2023/09/02 05:41:46;;;;;;;27.65;24.00;;;14.80;99.90;;;;;;5129852;28;20062;-63
2023/09/02 05:44:12;;;;;;;30.60;23.90;;;14.80;99.90;;;;;;5130695;28;20381;-62
2023/09/02 05:46:38;;;;;;;30.98;25.20;;;14.90;99.90;;;;;;5130994;28;20046;-62
2023/09/02 05:49:04;;;;;;;31.45;25.13;;;14.90;99.90;;;;;;5129131;28;20039;-62
2023/09/02 05:51:30;;;;;;;29.73;24.80;;;15.00;99.90;;;;;;5130871;28;20038;-62
2023/09/02 05:53:55;;;;;;;30.23;25.15;;;14.90;99.90;;;;;;5117481;28;20042;-62
2023/09/02 05:56:21;;;;;;;34.08;24.63;;;15.00;99.90;;;;;;5128404;28;20498;-63
2023/09/02 05:58:47;;;;;;;31.13;25.48;;;15.00;99.90;;;;;;5126717;28;20438;-62
2023/09/02 06:01:12;;;;;;;28.77;25.50;;;15.10;99.90;;;;;;5097043;28;20050;-62
2023/09/02 06:03:38;;;;;;;28.95;25.42;;;15.10;99.90;;;;;;5110662;28;20052;-62
2023/09/02 06:06:11;;;;;;;31.23;25.75;;;15.10;99.90;;;;;;5129390;27;20049;-63
2023/09/02 06:08:37;;;;;;;30.17;25.23;;;15.20;99.90;;;;;;5126209;27;20070;-62
2023/09/02 06:11:04;;;;;;;31.08;25.52;;;15.20;99.90;;;;;;5120356;27;20111;-63
2023/09/02 06:13:29;;;;;;;31.85;25.85;;;15.20;99.90;;;;;;5112497;28;20069;-63
2023/09/02 06:15:59;;;;;;;30.27;24.60;;;15.30;99.90;;;;;;5122040;27;20043;-62
2023/09/02 06:18:25;;;;;;;35.72;26.48;;;15.30;99.90;;;;;;5120184;27;20091;-62
2023/09/02 06:20:51;;;;;;;31.17;25.50;;;15.40;99.90;;;;;;5124118;27;20043;-62
2023/09/02 06:23:17;;;;;;;31.13;25.02;;;15.40;99.90;;;;;;5115698;27;20078;-62
2023/09/02 06:25:42;;;;;;;31.90;24.30;;;15.50;99.90;;;;;;5114046;27;20111;-62
2023/09/02 06:28:08;;;;;;;31.50;24.83;;;15.60;99.90;;;;;;5113523;27;20078;-63
2023/09/02 06:30:36;;;;;;;30.85;24.83;;;15.60;99.90;;;;;;5113691;28;20047;-63
2023/09/02 06:33:03;;;;;;;32.00;25.77;;;15.70;99.90;;;;;;5112661;28;20397;-62
2023/09/02 06:35:32;;;;;;;30.48;24.27;;;15.70;99.90;;;;;;5112482;27;20043;-62
2023/09/02 06:37:57;;;;;;;30.02;24.15;;;15.80;99.90;;;;;;5116198;27;20487;-63
2023/09/02 06:40:23;;;;;;;28.58;23.42;;;15.80;99.90;;;;;;5116217;27;20096;-62
2023/09/02 06:42:49;;;;;;;30.15;22.95;;;15.80;99.90;;;;;;5131160;27;20070;-62
2023/09/02 06:45:14;;;;;;;30.40;23.65;;;15.80;99.90;;;;;;5128195;27;20400;-63
2023/09/02 06:47:40;;;;;;;29.77;23.58;;;15.80;99.90;;;;;;5125270;27;20035;-63
2023/09/02 06:50:06;;;;;;;25.77;22.90;;;15.80;99.90;;;;;;5113723;28;20035;-62
2023/09/02 06:52:31;;;;;;;25.00;22.25;;;15.80;99.90;;;;;;5113491;28;20080;-62
2023/09/02 06:54:57;;;;;;;26.63;21.77;;;15.80;99.90;;;;;;5117583;27;20042;-63
2023/09/02 06:57:23;;;;;;;30.25;23.75;;;15.80;99.90;;;;;;5126676;27;20027;-63
2023/09/02 06:59:48;;;;;;;29.38;22.88;;;15.80;99.90;;;;;;5111461;27;20423;-63
2023/09/02 07:02:14;;;;;;;27.17;23.02;;;15.90;99.90;;;;;;5130405;27;20075;-62
2023/09/02 07:04:40;;;;;;;31.52;23.10;;;15.80;99.90;;;;;;5130918;27;20075;-62
2023/09/02 07:07:05;;;;;;;28.27;22.13;;;15.90;99.90;;;;;;5126513;27;20070;-62
2023/09/02 07:09:31;;;;;;;26.50;22.48;;;15.90;99.90;;;;;;5125777;27;20035;-63
2023/09/02 07:11:57;;;;;;;26.20;21.67;;;15.90;99.90;;;;;;5134949;27;20039;-63
2023/09/02 07:14:22;;;;;;;31.13;23.98;;;15.90;99.90;;;;;;5111097;27;20078;-62
2023/09/02 07:16:49;;;;;;;29.20;22.27;;;16.00;99.90;;;;;;5134885;27;20511;-62
2023/09/02 07:19:15;;;;;;;27.05;22.52;;;16.00;99.90;;;;;;5123657;27;20058;-63
2023/09/02 07:21:40;;;;;;;25.88;22.25;;;16.10;99.90;;;;;;5114715;27;20051;-65
2023/09/02 07:24:06;;;;;;;29.27;22.85;;;16.10;99.90;;;;;;5114685;27;20591;-64
2023/09/02 07:26:32;;;;;;;25.77;21.95;;;16.10;99.90;;;;;;5133027;27;20039;-64
2023/09/02 07:28:58;;;;;;;28.48;21.73;;;16.20;99.90;;;;;;5114376;27;20054;-62
2023/09/02 07:31:24;;;;;;;27.00;21.60;;;16.30;99.90;;;;;;5120352;27;20039;-62
2023/09/02 07:33:50;;;;;;;27.27;21.00;;;16.40;99.90;;;;;;5135106;27;20103;-64
2023/09/02 07:36:16;;;;;;;26.48;20.55;;;16.50;99.90;;;;;;5114262;27;20035;-64
2023/09/02 07:38:44;;;;;;;27.13;21.90;;;16.70;99.90;;;;;;5114197;27;20107;-64
2023/09/02 07:41:09;;;;;;;24.95;21.27;;;16.90;99.90;;;;;;5126079;27;20058;-63
2023/09/02 07:43:35;;;;;;;27.33;21.92;;;17.00;99.90;;;;;;5128904;27;20043;-64
2023/09/02 07:46:01;;;;;;;26.05;20.98;;;17.20;99.90;;;;;;5127185;27;20030;-63
2023/09/02 07:48:27;;;;;;;28.08;20.85;;;17.40;99.90;;;;;;5127758;27;20058;-63
2023/09/02 07:50:52;;;;;;;23.83;19.75;;;17.50;99.90;;;;;;5143513;27;20042;-63
2023/09/02 07:53:18;;;;;;;25.80;19.02;;;17.70;99.90;;;;;;5115564;27;20039;-63
2023/09/02 07:55:44;;;;;;;21.88;18.33;;;17.70;99.90;;;;;;5115019;27;20047;-62
2023/09/02 07:58:09;;;;;;;23.50;19.23;;;17.60;99.90;;;;;;5132160;27;20039;-62
2023/09/02 08:00:36;;;;;;;25.00;19.27;;;17.60;99.90;;;;;;5114122;27;20050;-63
2023/09/02 08:03:03;;;;;;;22.52;18.55;;;17.60;99.90;;;;;;5136511;27;20499;-64
2023/09/02 08:05:29;;;;;;;23.05;18.10;;;17.50;99.90;;;;;;5122226;27;20034;-64
2023/09/02 08:07:55;;;;;;;26.95;19.50;;;17.50;99.90;;;;;;5113913;27;20039;-64
2023/09/02 08:10:21;;;;;;;23.10;19.85;;;17.50;99.90;;;;;;5113560;27;20088;-63
2023/09/02 08:12:47;;;;;;;23.55;19.58;;;17.50;99.90;;;;;;5114075;27;20059;-64
2023/09/02 08:15:13;;;;;;;23.95;18.77;;;17.40;99.90;;;;;;5150276;27;20058;-63
2023/09/02 08:17:43;;;;;;;20.92;17.98;;;17.50;99.90;;;;;;5152922;27;20397;-63
2023/09/02 08:20:09;;;;;;;25.73;20.60;;;17.50;99.90;;;;;;5134048;27;20039;-63
2023/09/02 08:22:36;;;;;;;24.45;20.35;;;17.50;99.90;;;;;;5134061;27;20397;-63
2023/09/02 08:25:03;;;;;;;23.40;18.73;;;17.50;99.90;;;;;;5151302;27;20047;-64
2023/09/02 08:27:29;;;;;;;29.27;19.83;;;17.60;99.90;;;;;;5133972;27;20039;-63
2023/09/02 08:29:54;;;;;;;25.10;19.13;;;17.60;99.90;;;;;;5151575;27;20049;-63
2023/09/02 08:32:20;;;;;;;22.35;18.63;;;17.60;99.90;;;;;;5133412;27;20043;-63
2023/09/02 08:34:46;;;;;;;31.40;19.40;;;17.70;99.90;;;;;;5121917;27;20053;-64
2023/09/02 08:37:11;;;;;;;27.08;19.30;;;17.70;99.90;;;;;;5150605;27;20035;-62
2023/09/02 08:39:38;;;;;;;25.27;18.23;;;17.80;99.90;;;;;;5096361;27;20046;-63
2023/09/02 08:42:05;;;;;;;25.48;18.02;;;17.80;99.90;;;;;;5113172;27;20043;-63
2023/09/02 08:44:35;;;;;;;23.27;18.08;;;17.80;99.90;;;;;;5095384;27;20104;-63
2023/09/02 08:47:05;;;;;;;20.40;17.13;;;17.80;99.90;;;;;;5133834;27;20030;-64
2023/09/02 08:49:33;;;;;;;24.40;18.15;;;17.80;99.90;;;;;;5113649;27;20035;-64
2023/09/02 08:52:00;;;;;;;25.52;18.45;;;17.80;99.90;;;;;;5114552;27;20057;-63
2023/09/02 08:54:27;;;;;;;26.90;19.52;;;17.80;99.90;;;;;;5096875;27;20078;-64
2023/09/02 08:56:55;;;;;;;25.50;19.02;;;17.80;99.90;;;;;;5131846;27;20043;-64
2023/09/02 08:59:21;;;;;;;23.25;20.00;;;17.80;99.90;;;;;;5128681;27;20038;-64
2023/09/02 09:01:48;;;;;;;27.90;21.75;;;17.80;99.90;;;;;;5125933;27;20051;-63
2023/09/02 09:04:15;;;;;;;25.27;22.13;;;17.80;99.90;;;;;;5124282;27;20054;-63
2023/09/02 09:06:41;;;;;;;25.30;22.15;;;17.90;99.90;;;;;;5111713;27;20041;-64
2023/09/02 09:09:11;;;;;;;28.02;21.67;;;18.00;99.90;;;;;;5112377;27;20396;-63
2023/09/02 09:11:40;;;;;;;26.13;21.45;;;18.00;99.90;;;;;;5115496;27;20058;-63
2023/09/02 09:14:17;;;;;;;26.70;21.23;;;18.10;99.90;;;;;;5112574;27;20051;-64
2023/09/02 09:16:43;;;;;;;28.30;20.58;;;18.10;99.90;;;;;;5119329;27;20058;-64
2023/09/02 09:19:09;;;;;;;25.27;21.30;;;18.20;99.90;;;;;;5100632;27;20146;-63
2023/09/02 09:21:35;;;;;;;28.92;21.40;;;18.20;99.90;;;;;;5112852;28;20514;-63
2023/09/02 09:24:02;;;;;;;30.63;21.05;;;18.30;99.90;;;;;;5104893;27;20133;-64
2023/09/02 09:26:30;;;;;;;27.52;21.17;;;18.30;99.90;;;;;;5112439;28;20031;-63
2023/09/02 09:28:58;;;;;;;27.05;20.60;;;18.40;99.90;;;;;;5131221;27;20047;-64
2023/09/02 09:31:25;;;;;;;23.80;20.05;;;18.30;99.90;;;;;;5131555;27;20088;-63
2023/09/02 09:34:01;;;;;;;25.40;19.88;;;18.40;99.90;;;;;;5131366;27;20041;-64
2023/09/02 09:36:29;;;;;;;25.73;19.33;;;18.40;99.90;;;;;;5113525;28;20477;-64
2023/09/02 09:39:00;;;;;;;25.55;19.35;;;18.50;99.90;;;;;;5113257;27;20058;-63
2023/09/02 09:41:26;;;;;;;25.02;18.60;;;18.50;99.90;;;;;;5115179;27;20043;-64
2023/09/02 09:44:13;;;;;;;24.25;19.30;;;18.50;99.90;;;;;;5116967;27;20042;-63
2023/09/02 09:46:52;;;;;;;23.60;18.83;;;18.60;99.90;;;;;;5117295;27;20043;-64
2023/09/02 09:49:32;;;;;;;24.10;17.75;;;18.70;99.90;;;;;;5130930;27;20145;-63
2023/09/02 09:52:00;;;;;;;21.33;17.48;;;18.70;99.90;;;;;;5137604;27;20091;-63
2023/09/02 09:54:41;;;;;;;24.27;16.48;;;18.80;99.90;;;;;;5137758;27;20041;-63
2023/09/02 09:57:31;;;;;;;23.50;15.82;;;18.80;99.90;;;;;;5137162;27;20102;-64
2023/09/02 09:59:57;;;;;;;20.45;15.32;;;18.90;99.90;;;;;;5136639;27;20119;-65
2023/09/02 10:02:23;;;;;;;21.80;14.07;;;18.90;99.90;;;;;;5156142;27;20130;-64
2023/09/02 10:04:51;;;;;;;19.23;15.40;;;19.10;99.90;;;;;;5137264;27;20570;-63
2023/09/02 10:07:25;;;;;;;19.90;15.82;;;19.50;99.90;;;;;;5137623;27;20157;-64
2023/09/02 10:09:53;;;;;;;20.83;14.85;;;19.80;99.90;;;;;;5120118;27;20393;-63
2023/09/02 10:12:19;;;;;;;18.77;13.80;;;20.10;99.90;;;;;;5155797;27;20054;-64
2023/09/02 10:14:46;;;;;;;19.15;14.77;;;20.30;99.90;;;;;;5137170;27;20471;-65
2023/09/02 10:17:13;;;;;;;17.88;13.55;;;20.70;99.90;;;;;;5155414;27;20443;-64
2023/09/02 10:19:40;;;;;;;17.75;13.95;;;20.90;99.90;;;;;;5137108;27;20034;-63
2023/09/02 10:22:06;;;;;;;17.23;13.05;;;21.20;99.90;;;;;;5155688;27;20561;-65
2023/09/02 10:24:40;;;;;;;18.70;13.07;;;21.60;99.90;;;;;;5137223;27;20027;-64
2023/09/02 10:27:14;;;;;;;17.02;12.43;;;21.90;99.90;;;;;;5136789;27;20090;-64
2023/09/02 10:29:45;;;;;;;15.38;12.15;;;22.20;99.90;;;;;;5155485;27;20038;-64
2023/09/02 10:32:15;;;;;;;15.80;12.20;;;22.50;99.90;;;;;;5137185;27;20477;-63
2023/09/02 10:35:13;;;;;;;18.20;12.60;;;22.70;99.90;;;;;;5136941;27;20045;-65
2023/09/02 10:38:11;;;;;;;16.48;11.88;;;22.90;99.90;;;;;;5136843;27;20079;-64
2023/09/02 10:40:39;;;;;;;16.05;11.63;;;23.10;99.90;;;;;;5132472;27;20055;-63
2023/09/02 10:43:06;;;;;;;17.13;11.68;;;23.10;99.90;;;;;;5155211;27;20137;-64
2023/09/02 10:45:32;;;;;;;14.45;11.27;;;23.20;99.90;;;;;;5155376;27;20081;-64
2023/09/02 10:47:59;;;;;;;16.50;11.18;;;23.10;99.90;;;;;;5136419;27;20046;-63
2023/09/02 10:50:25;;;;;;;17.92;11.32;;;23.00;99.90;;;;;;5136598;27;20039;-64
2023/09/02 10:52:50;;;;;;;15.02;12.38;;;23.10;99.90;;;;;;5135740;27;20039;-65
2023/09/02 10:55:16;;;;;;;14.02;9.88;;;23.10;99.90;;;;;;5155018;27;20429;-63
2023/09/02 10:57:52;;;;;;;14.02;9.77;;;22.80;99.90;;;;;;5136956;27;20500;-64
2023/09/02 11:00:28;;;;;;;14.35;10.15;;;22.50;99.90;;;;;;5136059;27;20039;-63
2023/09/02 11:02:58;;;;;;;12.13;9.77;;;22.10;99.90;;;;;;5154930;27;20043;-64
2023/09/02 11:05:27;;;;;;;14.13;9.18;;;22.00;99.90;;;;;;5136073;27;20560;-64
2023/09/02 11:07:54;;;;;;;13.88;10.70;;;21.80;99.90;;;;;;5136281;27;20078;-64
2023/09/02 11:10:21;;;;;;;15.77;11.15;;;21.50;99.90;;;;;;5135954;27;20085;-64
2023/09/02 11:13:06;;;;;;;13.10;9.88;;;21.30;99.90;;;;;;5135987;27;20073;-63
2023/09/02 11:15:36;;;;;;;13.50;10.05;;;21.10;99.90;;;;;;5136169;27;20122;-64
2023/09/02 11:18:29;;;;;;;13.32;9.60;;;20.90;99.90;;;;;;5136336;27;20116;-64
2023/09/02 11:20:56;;;;;;;14.13;9.45;;;21.10;99.90;;;;;;5114918;27;20059;-64
2023/09/02 11:23:22;;;;;;;11.30;8.38;;;21.40;99.90;;;;;;5135712;27;20142;-64
2023/09/02 11:26:00;;;;;;;10.57;7.50;;;21.90;99.90;;;;;;5135921;27;20117;-64
2023/09/02 11:28:26;;;;;;;8.85;6.95;;;22.40;99.90;;;;;;5135622;27;20030;-64
2023/09/02 11:31:03;;;;;;;11.40;5.75;;;22.60;99.90;;;;;;5135829;27;20121;-64
2023/09/02 11:33:29;;;;;;;8.45;6.90;;;23.00;99.90;;;;;;5135745;27;20130;-64
2023/09/02 11:36:05;;;;;;;10.15;6.90;;;23.10;99.90;;;;;;5118326;27;20134;-64
2023/09/02 11:38:33;;;;;;;13.85;6.82;;;22.90;99.90;;;;;;5135293;27;20044;-64
2023/09/02 11:40:59;;;;;;;11.73;7.70;;;22.70;99.90;;;;;;5135563;27;20081;-64
2023/09/02 11:43:29;;;;;;;11.00;8.02;;;22.30;99.90;;;;;;5135588;27;20378;-64
2023/09/02 11:45:54;;;;;;;12.45;8.02;;;22.10;99.90;;;;;;5135637;27;20041;-65
2023/09/02 11:48:24;;;;;;;8.98;7.15;;;21.80;99.90;;;;;;5135202;27;20426;-64
2023/09/02 11:50:50;;;;;;;8.57;7.05;;;21.60;99.90;;;;;;5135383;27;20078;-64
2023/09/02 11:53:15;;;;;;;9.95;7.10;;;21.60;99.90;;;;;;5134996;27;20077;-63
2023/09/02 11:55:41;;;;;;;11.18;7.90;;;21.70;99.90;;;;;;5153976;27;20094;-64
2023/09/02 11:58:08;;;;;;;12.27;8.30;;;21.90;99.90;;;;;;5153983;27;20038;-64
2023/09/02 12:00:40;;;;;;;10.32;7.85;;;21.90;99.90;;;;;;5153778;27;20039;-64
2023/09/02 12:03:07;;;;;;;;;;;22.10;99.90;;;;;;5136051;27;20549;-65
2023/09/02 12:05:37;;;;;;;8.45;6.95;;;22.30;99.90;;;;;;5135070;27;19962;-64
2023/09/02 12:08:04;;;;;;;10.23;6.18;;;22.40;99.90;;;;;;5135445;27;20485;-64
2023/09/02 12:10:30;;;;;;;8.20;6.22;;;22.50;99.90;;;;;;5135054;27;20464;-63
2023/09/02 12:12:56;;;;;;;10.50;6.55;;;22.60;99.90;;;;;;5134704;27;20074;-63
2023/09/02 12:15:22;;;;;;;8.23;6.05;;;22.60;99.90;;;;;;5134631;27;20039;-64
2023/09/02 12:17:48;;;;;;;9.60;5.82;;;22.60;99.90;;;;;;5153414;27;20033;-64
2023/09/02 12:20:15;;;;;;;9.93;6.20;;;22.60;99.90;;;;;;5117296;27;20523;-64
2023/09/02 12:22:43;;;;;;;10.75;6.07;;;22.60;99.90;;;;;;5134595;27;20050;-63
2023/09/02 12:25:16;;;;;;;11.07;6.10;;;22.60;99.90;;;;;;5134962;27;20039;-64
2023/09/02 12:27:42;;;;;;;8.30;5.40;;;22.60;99.90;;;;;;5134736;27;20469;-63
2023/09/02 12:30:08;;;;;;;10.38;5.70;;;22.50;99.90;;;;;;5134983;27;20039;-65